Terminal Aerodrome Forecast
Issued by NWS

Home | Current Version | Previous Version | Text Only | Print | Product List | Glossary Off
Versions: 1 2 3 4 5 6 7 8 9 10 11 12 13 14 15 16 17 18

000
FTUS43 KBIS 242300
TAFMOT
TAF
KMOT 242339Z 2500/2524 06006KT P6SM OVC040
     FM250500 05009KT 4SM -SN BKN012 OVC030
     FM251000 02012KT P6SM SCT020 OVC050
     FM251400 33015KT P6SM BKN120=

USA.gov is the U.S. government's official web portal to all federal, state and local government web resources and services.